Time;durP1;ratioP1;P1;durP2;ratioP2;P2;SDS_P1;SDS_P2;PMS_P1;PMS_P2;Temp;Humidity;BMP_temperature;BMP_pressure;BME280_temperature;BME280_humidity;BME280_pressure;Samples;Min_cycle;Max_cycle;Signal;HPM_P1;HPM_P2
2022/05/03 00:01:29;;;;;;;2.90;2.05;;;333.00;2329.60;;;;;;5053004;28;20031;-55
2022/05/03 00:04:20;;;;;;;4.00;2.38;;;333.00;2329.60;;;;;;5071061;28;20024;-55
2022/05/03 00:07:24;;;;;;;3.35;2.00;;;332.90;2329.60;;;;;;5070626;28;20024;-56
2022/05/03 00:10:04;;;;;;;2.92;1.92;;;332.90;2329.60;;;;;;5070626;28;20115;-55
2022/05/03 00:13:01;;;;;;;3.15;2.00;;;332.90;2329.60;;;;;;5052536;28;20059;-56
2022/05/03 00:15:29;;;;;;;3.05;1.90;;;332.90;2329.60;;;;;;5070180;28;20036;-55
2022/05/03 00:17:55;;;;;;;4.68;2.97;;;332.80;2329.60;;;;;;5070588;28;20090;-56
2022/05/03 00:20:21;;;;;;;3.67;1.80;;;308.10;2304.00;;;;;;5070490;28;20482;-55
2022/05/03 00:22:47;;;;;;;3.78;2.13;;;308.10;2304.00;;;;;;5070636;28;20024;-56
2022/05/03 00:25:14;;;;;;;3.65;1.85;;;308.10;2304.00;;;;;;5070414;28;20024;-54
2022/05/03 00:27:39;;;;;;;4.28;2.47;;;308.00;2304.00;;;;;;5070260;28;20027;-55
2022/05/03 00:30:06;;;;;;;5.85;2.92;;;308.00;2304.00;;;;;;5070568;28;20111;-56
2022/05/03 00:32:32;;;;;;;4.80;2.63;;;308.10;2304.00;;;;;;5070216;28;20017;-56
2022/05/03 00:34:59;;;;;;;4.20;2.80;;;332.80;2329.60;;;;;;5070301;28;20073;-57
2022/05/03 00:37:25;;;;;;;3.28;2.17;;;308.10;2304.00;;;;;;5070344;28;20024;-56
2022/05/03 00:39:51;;;;;;;3.47;2.28;;;308.10;2304.00;;;;;;5070146;28;20371;-56
2022/05/03 00:42:29;;;;;;;4.72;2.28;;;308.00;2304.00;;;;;;5070411;28;20051;-56
2022/05/03 00:45:06;;;;;;;3.92;2.35;;;308.00;2304.00;;;;;;5070680;28;20028;-56
2022/05/03 00:47:53;;;;;;;4.03;1.98;;;308.10;2304.00;;;;;;5070095;28;20028;-56
2022/05/03 00:50:37;;;;;;;3.20;1.65;;;308.00;2304.00;;;;;;5070048;28;20495;-56
2022/05/03 00:53:20;;;;;;;3.58;2.22;;;308.00;2304.00;;;;;;5069847;28;20027;-56
2022/05/03 00:56:05;;;;;;;3.95;1.95;;;307.90;2304.00;;;;;;5070270;28;20124;-56
2022/05/03 00:58:52;;;;;;;3.22;2.22;;;307.90;2304.00;;;;;;5069798;28;20016;-54
2022/05/03 01:01:39;;;;;;;5.13;2.42;;;307.90;2304.00;;;;;;5070229;28;20028;-55
2022/05/03 01:04:13;;;;;;;3.47;2.20;;;307.80;2304.00;;;;;;5070193;28;20055;-55
2022/05/03 01:06:49;;;;;;;4.40;1.88;;;307.80;2304.00;;;;;;5069957;28;20036;-56
2022/05/03 01:09:24;;;;;;;2.92;1.75;;;307.80;2304.00;;;;;;5070115;28;20028;-56
2022/05/03 01:12:24;;;;;;;4.40;1.83;;;307.80;2304.00;;;;;;5069735;28;20529;-56
2022/05/03 01:15:06;;;;;;;4.07;1.88;;;307.80;2304.00;;;;;;5069823;28;20028;-55
2022/05/03 01:17:41;;;;;;;3.60;2.42;;;307.70;2304.00;;;;;;5069682;28;20111;-57
2022/05/03 01:20:08;;;;;;;3.70;1.70;;;307.60;2304.00;;;;;;5069994;28;20059;-55
2022/05/03 01:22:52;;;;;;;4.30;2.33;;;307.60;2304.00;;;;;;5069893;28;20048;-56
2022/05/03 01:25:43;;;;;;;3.10;1.95;;;307.60;2304.00;;;;;;5052001;28;20023;-56
2022/05/03 01:28:46;;;;;;;4.43;1.95;;;307.60;2304.00;;;;;;5069715;28;20040;-57
2022/05/03 01:31:14;;;;;;;4.27;2.23;;;307.60;2304.00;;;;;;5069652;28;20542;-55
2022/05/03 01:33:45;;;;;;;3.15;1.90;;;307.60;2304.00;;;;;;5069731;28;20277;-55
2022/05/03 01:36:15;;;;;;;3.30;2.00;;;307.60;2304.00;;;;;;5069786;28;20446;-55
2022/05/03 01:39:09;;;;;;;3.13;2.03;;;307.60;2304.00;;;;;;5069796;28;20021;-56
2022/05/03 01:41:46;;;;;;;3.15;2.13;;;307.50;2304.00;;;;;;5069102;28;20056;-56
2022/05/03 01:44:23;;;;;;;3.15;1.98;;;307.40;2304.00;;;;;;5069457;28;20029;-56
2022/05/03 01:46:55;;;;;;;2.75;1.98;;;307.40;2304.00;;;;;;5069441;28;20036;-56
2022/05/03 01:53:12;;;;;;;2.58;1.55;;;307.40;2304.00;;;;;;5069801;28;20031;-56
2022/05/03 01:55:56;;;;;;;4.35;2.17;;;307.20;2304.00;;;;;;4990436;28;20045;-56
2022/05/03 01:58:57;;;;;;;3.97;2.20;;;282.50;2278.40;;;;;;4991818;28;20126;-55
2022/05/03 02:01:43;;;;;;;3.83;2.05;;;282.50;2278.40;;;;;;4959876;28;20039;-56
2022/05/03 02:04:28;;;;;;;3.53;2.20;;;282.50;2278.40;;;;;;4991623;28;20032;-56
2022/05/03 02:07:25;;;;;;;3.55;2.10;;;282.40;2278.40;;;;;;4991546;28;20121;-55
2022/05/03 02:10:18;;;;;;;4.13;2.33;;;282.20;2278.40;;;;;;4991506;28;20186;-56
2022/05/03 02:12:52;;;;;;;3.65;1.80;;;282.00;2278.40;;;;;;4991686;28;20036;-56
2022/05/03 02:15:38;;;;;;;3.53;1.90;;;282.00;2278.40;;;;;;4991772;28;20089;-56
2022/05/03 02:18:10;;;;;;;3.75;2.05;;;282.00;2278.40;;;;;;4991422;28;20035;-55
2022/05/03 02:20:45;;;;;;;2.70;1.70;;;282.00;2278.40;;;;;;4991700;28;20078;-55
2022/05/03 02:23:31;;;;;;;3.03;1.98;;;282.00;2278.40;;;;;;4991341;28;20027;-55
2022/05/03 02:26:26;;;;;;;3.40;1.83;;;281.90;2278.40;;;;;;4991560;28;20026;-55
2022/05/03 02:29:02;;;;;;;6.03;2.28;;;281.90;2278.40;;;;;;4991034;28;20145;-55
2022/05/03 02:31:37;;;;;;;2.97;1.90;;;282.00;2278.40;;;;;;5050017;28;20064;-55
2022/05/03 02:34:40;;;;;;;3.10;1.55;;;282.20;2278.40;;;;;;5072590;28;20059;-55
2022/05/03 02:37:35;;;;;;;5.75;2.38;;;282.20;2278.40;;;;;;5072769;28;20035;-56
2022/05/03 02:40:07;;;;;;;4.50;1.70;;;282.20;2278.40;;;;;;5072328;28;20034;-55
2022/05/03 02:42:34;;;;;;;3.67;2.13;;;282.20;2278.40;;;;;;5072342;28;20020;-55
2022/05/03 02:45:03;;;;;;;3.00;1.88;;;282.20;2278.40;;;;;;5072275;28;20582;-56
2022/05/03 02:47:34;;;;;;;3.25;1.80;;;282.30;2278.40;;;;;;5072188;28;20033;-56
2022/05/03 02:50:17;;;;;;;2.53;1.70;;;282.30;2278.40;;;;;;5072314;28;20044;-55
2022/05/03 02:53:00;;;;;;;3.47;2.30;;;282.30;2278.40;;;;;;5072374;28;20386;-55
2022/05/03 02:55:40;;;;;;;3.58;2.28;;;282.20;2278.40;;;;;;5072424;28;20479;-55
2022/05/03 02:58:29;;;;;;;4.15;2.08;;;282.00;2278.40;;;;;;5072230;28;20039;-55
2022/05/03 03:04:01;;;;;;;3.60;2.05;;;282.00;2278.40;;;;;;4990659;28;20037;-56
2022/05/03 03:06:37;;;;;;;2.67;1.58;;;282.00;2278.40;;;;;;4989614;28;20031;-55
2022/05/03 03:09:03;;;;;;;2.55;1.42;;;281.80;2278.40;;;;;;4990291;28;20081;-55
2022/05/03 03:11:34;;;;;;;3.88;2.42;;;281.70;2278.40;;;;;;4990564;28;20046;-56
2022/05/03 03:14:11;;;;;;;3.80;2.40;;;281.70;2278.40;;;;;;4990433;28;20022;-55
2022/05/03 03:16:50;;;;;;;3.25;2.10;;;281.70;2278.40;;;;;;4990351;28;20045;-56
2022/05/03 03:19:34;;;;;;;3.95;1.92;;;281.70;2278.40;;;;;;4990541;28;20089;-55
2022/05/03 03:22:04;;;;;;;2.70;1.77;;;281.70;2278.40;;;;;;4990281;28;20555;-56
2022/05/03 03:24:34;;;;;;;3.55;2.22;;;281.70;2278.40;;;;;;4990265;28;20065;-56
2022/05/03 03:27:02;;;;;;;4.15;2.20;;;281.80;2278.40;;;;;;4990181;28;20030;-56
2022/05/03 03:29:29;;;;;;;3.35;1.58;;;281.90;2278.40;;;;;;4973956;28;20386;-57
2022/05/03 03:31:58;;;;;;;3.53;1.98;;;281.80;2278.40;;;;;;4990239;28;20440;-56
2022/05/03 03:34:25;;;;;;;3.10;1.80;;;281.70;2278.40;;;;;;4990398;28;20033;-55
2022/05/03 03:36:53;;;;;;;3.53;2.05;;;281.70;2278.40;;;;;;4994925;28;20030;-55
2022/05/03 03:39:19;;;;;;;4.05;2.42;;;281.80;2278.40;;;;;;5071411;28;20028;-56
2022/05/03 03:41:47;;;;;;;4.15;1.95;;;281.80;2278.40;;;;;;5071726;28;20021;-55
2022/05/03 03:44:13;;;;;;;3.30;2.20;;;282.00;2278.40;;;;;;5071397;28;20382;-55
2022/05/03 03:46:39;;;;;;;4.38;2.17;;;282.00;2278.40;;;;;;5070968;28;20020;-56
2022/05/03 03:49:05;;;;;;;3.30;2.40;;;282.20;2278.40;;;;;;5071116;28;20394;-55
2022/05/03 03:51:32;;;;;;;4.40;2.53;;;282.20;2278.40;;;;;;5071129;28;20059;-55
2022/05/03 03:53:58;;;;;;;4.38;2.20;;;282.30;2278.40;;;;;;5071362;28;20104;-55
2022/05/03 03:56:25;;;;;;;3.92;2.50;;;282.30;2278.40;;;;;;5071177;28;20036;-56
2022/05/03 03:58:52;;;;;;;3.45;2.10;;;282.20;2278.40;;;;;;5070706;28;20020;-56
2022/05/03 04:01:18;;;;;;;3.10;1.70;;;282.40;2278.40;;;;;;5071223;28;20059;-56
2022/05/03 04:03:45;;;;;;;3.63;2.42;;;282.40;2278.40;;;;;;5071255;28;20024;-55
2022/05/03 04:06:11;;;;;;;4.95;2.40;;;282.50;2278.40;;;;;;5070932;28;20059;-56
2022/05/03 04:08:36;;;;;;;3.60;2.17;;;307.20;2304.00;;;;;;5070694;28;20083;-55
2022/05/03 04:11:18;;;;;;;3.33;1.73;;;307.40;2304.00;;;;;;5070496;28;20030;-55
2022/05/03 04:13:44;;;;;;;4.07;2.00;;;307.40;2304.00;;;;;;5070692;28;20118;-55
2022/05/03 04:16:10;;;;;;;4.88;2.28;;;307.50;2304.00;;;;;;5070718;28;20016;-56
2022/05/03 04:18:45;;;;;;;3.58;2.40;;;307.50;2304.00;;;;;;5070161;28;20090;-56
2022/05/03 04:21:12;;;;;;;3.53;2.22;;;307.60;2304.00;;;;;;5070530;28;20371;-56
2022/05/03 04:23:38;;;;;;;4.45;2.00;;;307.80;2304.00;;;;;;5070584;28;20024;-56
2022/05/03 04:26:04;;;;;;;3.75;1.95;;;307.80;2304.00;;;;;;5070723;28;20048;-56
2022/05/03 04:28:29;;;;;;;4.03;2.05;;;307.90;2304.00;;;;;;5070353;28;20024;-55
2022/05/03 04:30:55;;;;;;;4.10;2.15;;;308.00;2304.00;;;;;;5070342;28;20086;-55
2022/05/03 04:33:21;;;;;;;3.20;1.85;;;308.10;2304.00;;;;;;5070349;28;20021;-55
2022/05/03 04:35:46;;;;;;;3.47;2.00;;;332.90;2329.60;;;;;;5070470;28;20124;-56
2022/05/03 04:38:12;;;;;;;3.58;1.85;;;333.10;2329.60;;;;;;5070638;28;20029;-54
2022/05/03 04:40:38;;;;;;;4.22;2.28;;;333.10;2329.60;;;;;;5070464;28;20383;-55
2022/05/03 04:43:04;;;;;;;3.22;1.83;;;333.40;2329.60;;;;;;5070271;28;20127;-55
2022/05/03 04:45:29;;;;;;;4.25;2.05;;;333.60;2329.60;;;;;;5070249;28;20056;-56
2022/05/03 04:47:55;;;;;;;3.97;1.92;;;358.50;2329.60;;;;;;5070096;28;20029;-55
2022/05/03 04:50:21;;;;;;;2.97;2.05;;;358.70;2329.60;;;;;;5069870;28;20043;-56
2022/05/03 04:52:47;;;;;;;3.13;2.22;;;384.30;2329.60;;;;;;5057358;28;20135;-55
2022/05/03 04:55:13;;;;;;;3.53;2.00;;;410.00;2304.00;;;;;;5050060;28;20037;-56
2022/05/03 04:57:38;;;;;;;4.15;2.25;;;435.50;2150.40;;;;;;5050350;28;20025;-56
2022/05/03 05:00:05;;;;;;;3.08;2.10;;;435.50;2124.80;;;;;;5050069;28;20032;-54
2022/05/03 05:02:32;;;;;;;3.88;2.22;;;410.30;2176.00;;;;;;5049930;28;20116;-54
2022/05/03 05:04:58;;;;;;;3.53;2.05;;;410.20;2176.00;;;;;;5050122;28;20033;-56
2022/05/03 05:07:24;;;;;;;4.57;2.30;;;410.00;2201.60;;;;;;5049828;28;20107;-56
2022/05/03 05:12:34;;;;;;;3.42;2.15;;;409.80;2278.40;;;;;;5049946;28;20493;-56
2022/05/03 05:14:59;;;;;;;4.53;2.80;;;409.90;2329.60;;;;;;5049648;28;20028;-56
2022/05/03 05:17:25;;;;;;;4.32;2.22;;;410.20;2329.60;;;;;;5049816;28;20052;-55
2022/05/03 05:19:51;;;;;;;3.38;2.30;;;410.50;2201.60;;;;;;5049756;28;20036;-56
2022/05/03 05:22:16;;;;;;;3.92;2.40;;;435.30;2150.40;;;;;;5050028;28;20435;-55
2022/05/03 05:24:42;;;;;;;5.72;2.60;;;410.20;2252.80;;;;;;5049959;28;20025;-56
2022/05/03 05:27:08;;;;;;;5.82;2.17;;;410.40;2227.20;;;;;;5049807;28;20028;-56
2022/05/03 05:29:34;;;;;;;4.05;2.70;;;410.40;2201.60;;;;;;5049860;28;20029;-55
2022/05/03 05:31:59;;;;;;;4.15;2.33;;;410.50;2176.00;;;;;;5053698;28;20023;-55
2022/05/03 05:34:25;;;;;;;4.32;2.78;;;435.60;2099.20;;;;;;5053831;28;20485;-55
2022/05/03 05:36:51;;;;;;;5.00;3.10;;;460.90;2048.00;;;;;;5053594;28;20036;-56
2022/05/03 05:39:16;;;;;;;4.55;2.65;;;461.20;2022.40;;;;;;5053876;28;20029;-56
2022/05/03 05:41:42;;;;;;;3.17;2.35;;;461.30;2022.40;;;;;;5053751;28;20104;-55
2022/05/03 05:44:11;;;;;;;3.22;2.20;;;486.40;1945.60;;;;;;5053701;28;20459;-55
2022/05/03 05:46:37;;;;;;;3.40;2.10;;;486.40;1945.60;;;;;;5053527;28;20068;-56
2022/05/03 05:49:04;;;;;;;3.38;2.40;;;486.60;1945.60;;;;;;5053144;28;20060;-56
2022/05/03 05:51:29;;;;;;;5.63;2.50;;;487.00;1894.40;;;;;;5053373;28;20047;-56
2022/05/03 05:53:56;;;;;;;5.45;2.70;;;487.10;1868.80;;;;;;5053572;28;20021;-56
2022/05/03 05:56:22;;;;;;;3.78;2.35;;;487.30;1843.20;;;;;;5053469;28;20025;-56
2022/05/03 05:58:47;;;;;;;4.03;2.60;;;487.10;1868.80;;;;;;5053511;28;20510;-56
2022/05/03 06:01:13;;;;;;;5.93;2.70;;;487.30;1868.80;;;;;;5053237;28;20029;-56
2022/05/03 06:03:41;;;;;;;4.95;2.53;;;512.00;1843.20;;;;;;5053067;28;20021;-56
2022/05/03 06:06:07;;;;;;;4.45;2.30;;;487.20;1868.80;;;;;;5053121;28;20033;-56
2022/05/03 06:08:32;;;;;;;5.20;2.35;;;487.10;1868.80;;;;;;5053466;28;20103;-56
2022/05/03 06:10:59;;;;;;;3.95;3.10;;;512.10;1843.20;;;;;;5053184;28;20064;-56
2022/05/03 06:13:25;;;;;;;4.28;2.70;;;512.60;1792.00;;;;;;5053174;28;20136;-56
2022/05/03 06:15:51;;;;;;;3.38;2.40;;;512.50;1817.60;;;;;;5052870;28;20029;-56
2022/05/03 06:18:17;;;;;;;4.10;2.60;;;512.40;1817.60;;;;;;5053008;28;20032;-55
2022/05/03 06:20:43;;;;;;;4.32;2.97;;;512.30;1792.00;;;;;;5052663;28;20446;-56
2022/05/03 06:23:09;;;;;;;3.88;3.13;;;512.20;1817.60;;;;;;5052934;28;20104;-57
2022/05/03 06:25:35;;;;;;;4.10;3.15;;;512.60;1817.60;;;;;;5052875;28;20032;-56
2022/05/03 06:28:01;;;;;;;4.45;2.85;;;537.80;1766.40;;;;;;5052580;28;20033;-57
2022/05/03 06:30:27;;;;;;;3.97;2.53;;;538.10;1740.80;;;;;;5052615;28;20044;-56
2022/05/03 06:32:54;;;;;;;3.55;2.15;;;538.00;1715.20;;;;;;5052536;28;20096;-57
2022/05/03 06:35:21;;;;;;;3.55;2.50;;;563.30;1715.20;;;;;;5052488;28;20435;-56
2022/05/03 06:37:46;;;;;;;3.22;2.40;;;563.30;1689.60;;;;;;5052539;28;20387;-55
2022/05/03 06:40:12;;;;;;;3.88;2.53;;;563.50;1689.60;;;;;;5052421;28;20040;-56
2022/05/03 06:42:39;;;;;;;3.28;2.28;;;563.60;1664.00;;;;;;5052372;28;20056;-55
2022/05/03 06:45:07;;;;;;;4.00;2.90;;;588.80;1638.40;;;;;;5049098;28;20029;-57
2022/05/03 06:47:33;;;;;;;3.67;2.65;;;589.70;1587.20;;;;;;5033880;28;20030;-57
2022/05/03 06:49:59;;;;;;;3.72;3.25;;;640.10;1459.20;;;;;;5032270;28;20060;-57
2022/05/03 06:52:25;;;;;;;6.38;3.40;;;640.70;1382.40;;;;;;5032290;28;20029;-55
2022/05/03 06:54:51;;;;;;;4.45;3.40;;;666.30;1356.80;;;;;;5041120;28;20491;-56
2022/05/03 06:57:17;;;;;;;4.32;3.25;;;691.70;1280.00;;;;;;5041323;28;20017;-56
2022/05/03 06:59:43;;;;;;;4.07;3.47;;;717.20;1254.40;;;;;;5042476;28;20463;-57
2022/05/03 07:02:09;;;;;;;7.55;3.95;;;717.70;1203.20;;;;;;5046432;28;20140;-60
2022/05/03 07:04:34;;;;;;;4.97;4.40;;;742.80;1152.00;;;;;;5052139;28;20055;-61
2022/05/03 07:07:00;;;;;;;5.53;5.03;;;743.10;1152.00;;;;;;5051837;28;20029;-60
2022/05/03 07:09:26;;;;;;;5.43;4.68;;;743.30;1126.40;;;;;;5033779;28;20033;-59
2022/05/03 07:11:51;;;;;;;5.25;4.40;;;742.50;1126.40;;;;;;5051826;28;20470;-62
2022/05/03 07:14:18;;;;;;;5.15;4.32;;;743.10;1049.60;;;;;;5051874;28;20112;-63
2022/05/03 07:16:44;;;;;;;7.90;5.20;;;768.90;1049.60;;;;;;5051611;28;20391;-62
2022/05/03 07:24:38;;;;;;;6.22;5.28;;;768.90;1049.60;;;;;;5052065;28;20386;-62
2022/05/03 07:27:04;;;;;;;6.65;5.93;;;819.30;998.40;;;;;;5051695;28;20021;-64
2022/05/03 07:29:30;;;;;;;5.82;5.32;;;870.40;972.80;;;;;;5047842;28;20025;-58
2022/05/03 07:31:55;;;;;;;6.15;5.55;;;768.90;1024.00;;;;;;5039109;28;20052;-61
2022/05/03 07:34:21;;;;;;;7.55;6.78;;;844.80;998.40;;;;;;5040425;28;20403;-61
2022/05/03 07:36:47;;;;;;;7.43;6.18;;;793.70;1049.60;;;;;;5039609;28;20494;-62
2022/05/03 07:39:13;;;;;;;6.55;5.65;;;768.80;1049.60;;;;;;5039482;28;20060;-61
2022/05/03 07:41:38;;;;;;;6.95;4.90;;;819.60;972.80;;;;;;5041129;28;20431;-64
2022/05/03 07:44:04;;;;;;;6.32;5.72;;;820.10;972.80;;;;;;5039416;28;20104;-59
2022/05/03 07:46:30;;;;;;;6.35;5.75;;;819.90;998.40;;;;;;5039434;28;20104;-65
2022/05/03 07:48:56;;;;;;;7.07;6.47;;;845.20;972.80;;;;;;5040497;28;20034;-61
2022/05/03 07:51:22;;;;;;;6.28;5.78;;;871.10;921.60;;;;;;5038696;28;20036;-65
2022/05/03 07:53:48;;;;;;;5.97;5.45;;;820.10;947.20;;;;;;5039177;28;20017;-62
2022/05/03 07:56:13;;;;;;;6.07;5.57;;;871.00;921.60;;;;;;5040535;28;20029;-68
2022/05/03 07:58:39;;;;;;;6.05;5.55;;;921.60;870.40;;;;;;5038399;28;20468;-59
2022/05/03 08:01:05;;;;;;;7.13;6.53;;;871.20;870.40;;;;;;5040110;28;20021;-59
2022/05/03 08:03:31;;;;;;;6.28;5.68;;;921.80;870.40;;;;;;5039912;28;20049;-66
2022/05/03 08:05:57;;;;;;;6.32;5.68;;;947.20;844.80;;;;;;5038583;28;20048;-62
2022/05/03 08:08:23;;;;;;;6.07;5.47;;;871.10;896.00;;;;;;5039993;28;20130;-63
2022/05/03 08:10:49;;;;;;;6.07;5.57;;;921.80;870.40;;;;;;5039538;28;20041;-62
2022/05/03 08:13:15;;;;;;;5.57;4.97;;;922.40;844.80;;;;;;5038762;28;20091;-62
2022/05/03 08:15:41;;;;;;;5.95;5.55;;;871.10;870.40;;;;;;5038448;28;20025;-62
2022/05/03 08:18:07;;;;;;;6.05;5.55;;;870.90;870.40;;;;;;5039425;28;20463;-63
2022/05/03 08:20:33;;;;;;;5.13;4.50;;;896.00;870.40;;;;;;5039857;28;20507;-62
2022/05/03 08:22:59;;;;;;;4.82;4.32;;;845.30;896.00;;;;;;5038517;28;20446;-59
2022/05/03 08:25:26;;;;;;;7.32;4.57;;;793.60;972.80;;;;;;5039461;28;20104;-61
2022/05/03 08:27:51;;;;;;;5.15;4.00;;;717.40;1049.60;;;;;;5032864;28;20030;-60
2022/05/03 08:30:17;;;;;;;4.30;3.67;;;691.60;1100.80;;;;;;5030491;28;20103;-60
2022/05/03 08:32:43;;;;;;;3.90;3.30;;;640.50;1152.00;;;;;;5030468;28;20025;-58
2022/05/03 08:35:09;;;;;;;4.82;3.28;;;640.40;1152.00;;;;;;5030407;28;20033;-60
2022/05/03 08:43:05;;;;;;;6.40;5.10;;;614.90;1254.40;;;;;;5030521;28;20084;-59
2022/05/03 08:45:32;;;;;;;9.20;6.72;;;614.90;1254.40;;;;;;5029993;28;20476;-59
2022/05/03 08:48:00;;;;;;;4.40;3.65;;;589.30;1331.20;;;;;;5030188;28;20029;-58
2022/05/03 08:50:26;;;;;;;4.68;3.50;;;589.70;1305.60;;;;;;5030293;28;20042;-61
2022/05/03 08:52:58;;;;;;;4.85;3.72;;;589.50;1280.00;;;;;;5030200;28;20037;-60
2022/05/03 08:55:25;;;;;;;4.78;3.40;;;614.50;1280.00;;;;;;5030439;28;20035;-58
2022/05/03 08:57:51;;;;;;;4.78;3.28;;;589.20;1280.00;;;;;;5030038;28;20064;-59
2022/05/03 09:00:19;;;;;;;4.43;2.78;;;614.60;1228.80;;;;;;5029926;28;20029;-59
2022/05/03 09:02:48;;;;;;;6.22;3.40;;;614.50;1228.80;;;;;;5012625;28;20049;-58
2022/05/03 09:05:15;;;;;;;4.28;2.97;;;614.60;1228.80;;;;;;5029863;28;20539;-60
2022/05/03 09:07:56;;;;;;;5.53;3.58;;;589.00;1280.00;;;;;;5029903;28;20049;-64
2022/05/03 09:10:27;;;;;;;4.85;3.25;;;589.10;1280.00;;;;;;5029772;28;20037;-62
2022/05/03 09:12:55;;;;;;;4.00;2.63;;;564.10;1331.20;;;;;;5029868;28;20128;-61
2022/05/03 09:15:34;;;;;;;4.40;3.25;;;563.80;1331.20;;;;;;5029774;28;20372;-60
2022/05/03 09:18:01;;;;;;;4.82;3.22;;;564.00;1331.20;;;;;;5030023;28;20045;-64
2022/05/03 09:26:13;;;;;;;4.85;2.97;;;588.80;1356.80;;;;;;5029780;28;20109;-61
2022/05/03 09:28:56;;;;;;;5.10;3.00;;;588.90;1356.80;;;;;;5029959;28;20799;-58
2022/05/03 09:31:47;;;;;;;4.32;3.00;;;589.20;1331.20;;;;;;5029532;28;20511;-59
2022/05/03 09:34:28;;;;;;;4.93;3.13;;;589.30;1356.80;;;;;;5029644;28;20479;-59
2022/05/03 09:37:09;;;;;;;3.55;2.65;;;589.60;1356.80;;;;;;5029644;28;20025;-59
2022/05/03 09:39:43;;;;;;;3.58;3.00;;;614.50;1331.20;;;;;;5029915;28;20022;-58
2022/05/03 09:42:10;;;;;;;3.60;2.75;;;589.60;1382.40;;;;;;5029512;28;20032;-59
2022/05/03 09:45:00;;;;;;;3.53;2.55;;;589.60;1382.40;;;;;;5029996;28;20068;-60
2022/05/03 09:47:51;;;;;;;3.80;2.67;;;614.40;1356.80;;;;;;5029773;28;20041;-63
2022/05/03 09:50:29;;;;;;;4.13;3.17;;;589.70;1331.20;;;;;;5029713;28;20488;-63
2022/05/03 09:52:56;;;;;;;5.22;2.42;;;589.50;1356.80;;;;;;5029668;28;20022;-62
2022/05/03 09:55:36;;;;;;;9.15;2.67;;;589.30;1459.20;;;;;;5029482;28;20551;-61
2022/05/03 09:58:04;;;;;;;3.30;2.58;;;589.00;1459.20;;;;;;5029467;28;20021;-61
2022/05/03 10:00:33;;;;;;;4.47;2.78;;;588.80;1484.80;;;;;;5029174;28;20025;-62
2022/05/03 10:03:00;;;;;;;4.35;3.05;;;588.90;1484.80;;;;;;5029719;28;20643;-64
2022/05/03 10:05:25;;;;;;;4.35;2.63;;;563.90;1484.80;;;;;;5029448;28;20033;-63
2022/05/03 10:07:55;;;;;;;5.20;2.70;;;588.80;1510.40;;;;;;5029309;28;20050;-61
2022/05/03 10:10:23;;;;;;;4.18;2.58;;;563.70;1408.00;;;;;;5029236;28;20033;-58
2022/05/03 10:12:53;;;;;;;4.35;2.65;;;564.00;1408.00;;;;;;5029614;28;20029;-61
2022/05/03 10:21:28;;;;;;;4.22;3.17;;;589.00;1459.20;;;;;;5031255;28;20048;-61
2022/05/03 10:24:09;;;;;;;4.38;2.90;;;588.80;1484.80;;;;;;5032698;28;20029;-58
2022/05/03 10:26:53;;;;;;;4.22;2.80;;;588.80;1433.60;;;;;;5033003;28;20037;-63
2022/05/03 10:29:20;;;;;;;4.18;2.63;;;564.10;1408.00;;;;;;5032871;28;20123;-59
2022/05/03 10:32:05;;;;;;;5.03;2.83;;;564.00;1408.00;;;;;;5032839;28;20032;-61
2022/05/03 10:34:59;;;;;;;3.97;2.80;;;589.20;1382.40;;;;;;5032671;28;20510;-62
2022/05/03 10:37:33;;;;;;;4.07;3.00;;;589.30;1382.40;;;;;;5030481;28;20064;-58
2022/05/03 10:40:00;;;;;;;4.07;3.17;;;589.40;1433.60;;;;;;5032640;28;20563;-59
2022/05/03 10:42:28;;;;;;;3.80;3.03;;;589.50;1356.80;;;;;;5015077;28;20021;-64
2022/05/03 10:44:58;;;;;;;3.53;2.25;;;589.60;1356.80;;;;;;5032318;28;20025;-58
2022/05/03 10:47:52;;;;;;;4.80;2.85;;;589.20;1382.40;;;;;;5032310;28;20029;-61
2022/05/03 10:50:18;;;;;;;5.80;3.20;;;589.50;1433.60;;;;;;4951185;29;20051;-57
2022/05/03 10:52:59;;;;;;;4.35;2.90;;;589.30;1433.60;;;;;;4951843;29;20094;-59
2022/05/03 10:55:28;;;;;;;4.15;2.90;;;589.20;1484.80;;;;;;4951925;29;20047;-58
2022/05/03 10:58:16;;;;;;;4.80;2.92;;;589.20;1433.60;;;;;;4951795;29;20522;-57
2022/05/03 11:01:06;;;;;;;4.25;2.80;;;588.90;1408.00;;;;;;4951577;29;20043;-58
2022/05/03 11:03:41;;;;;;;3.35;2.42;;;589.20;1433.60;;;;;;4951133;29;20042;-58
2022/05/03 11:06:19;;;;;;;5.15;2.63;;;588.90;1459.20;;;;;;4952108;29;20027;-61
2022/05/03 11:09:02;;;;;;;3.92;2.90;;;588.90;1510.40;;;;;;4951567;29;20073;-61
2022/05/03 11:11:42;;;;;;;;;;;589.10;1484.80;;;;;;4952406;29;20058;-58
2022/05/03 11:14:21;;;;;;;3.17;2.35;;;588.90;1408.00;;;;;;4951923;29;20090;-59
2022/05/03 11:16:51;;;;;;;5.97;3.35;;;589.00;1408.00;;;;;;4951339;29;20035;-61
2022/05/03 11:19:17;;;;;;;3.80;2.97;;;564.00;1433.60;;;;;;4951491;29;20077;-58
2022/05/03 11:21:47;;;;;;;4.57;2.90;;;563.80;1433.60;;;;;;4950951;29;20036;-59
2022/05/03 11:24:21;;;;;;;4.25;2.78;;;563.60;1433.60;;;;;;4951671;29;20147;-61
2022/05/03 11:26:52;;;;;;;4.82;3.03;;;563.30;1536.00;;;;;;4976848;28;20036;-61
2022/05/03 11:29:18;;;;;;;8.15;5.07;;;563.30;1510.40;;;;;;5031035;28;20033;-58
2022/05/03 11:31:51;;;;;;;7.43;4.53;;;538.40;1510.40;;;;;;5031721;28;20028;-61
2022/05/03 11:34:18;;;;;;;7.82;4.88;;;538.20;1561.60;;;;;;5031618;28;20029;-59
2022/05/03 11:36:47;;;;;;;3.75;2.60;;;538.30;1510.40;;;;;;5031584;28;20033;-59
2022/05/03 11:39:14;;;;;;;4.78;3.08;;;538.40;1484.80;;;;;;5031679;28;20029;-61
2022/05/03 11:41:42;;;;;;;5.15;3.35;;;538.50;1536.00;;;;;;5031577;28;20099;-63
2022/05/03 11:44:08;;;;;;;4.07;2.85;;;538.50;1587.20;;;;;;5031603;28;20029;-62
2022/05/03 11:46:34;;;;;;;5.60;3.30;;;538.50;1689.60;;;;;;5031288;28;20038;-61
2022/05/03 11:49:03;;;;;;;4.30;2.90;;;538.00;1817.60;;;;;;5031277;28;20041;-58
2022/05/03 11:57:17;;;;;;;6.75;3.03;;;537.60;1792.00;;;;;;5031646;28;20032;-61
2022/05/03 11:59:44;;;;;;;4.57;2.95;;;537.90;1792.00;;;;;;5031058;28;20033;-61
2022/05/03 12:02:29;;;;;;;3.55;2.10;;;538.20;1766.40;;;;;;5030885;28;20357;-58
2022/05/03 12:05:07;;;;;;;3.70;2.92;;;538.30;1664.00;;;;;;5031113;28;20479;-61
2022/05/03 12:07:44;;;;;;;4.95;2.92;;;538.50;1664.00;;;;;;5030576;28;20437;-56
2022/05/03 12:10:25;;;;;;;8.27;5.00;;;563.50;1612.80;;;;;;5030731;28;20034;-61
2022/05/03 12:13:24;;;;;;;5.88;3.72;;;563.20;1587.20;;;;;;5040110;28;20029;-56
2022/05/03 12:16:06;;;;;;;4.55;3.70;;;563.50;1561.60;;;;;;5039793;28;20112;-57
2022/05/03 12:18:41;;;;;;;3.80;2.90;;;563.50;1587.20;;;;;;5040219;28;20022;-59
2022/05/03 12:21:11;;;;;;;4.35;2.60;;;563.50;1664.00;;;;;;5039795;28;20022;-61
2022/05/03 12:23:44;;;;;;;4.40;2.95;;;563.50;1689.60;;;;;;5036564;28;20120;-60
2022/05/03 12:26:13;;;;;;;4.88;3.03;;;563.30;1740.80;;;;;;5027933;28;20022;-57
2022/05/03 12:28:50;;;;;;;4.38;2.92;;;563.20;1817.60;;;;;;5029247;28;20107;-58
2022/05/03 12:31:18;;;;;;;4.20;2.88;;;538.30;1817.60;;;;;;5029026;28;20025;-61
2022/05/03 12:33:55;;;;;;;3.15;2.20;;;538.30;1664.00;;;;;;5028962;28;20033;-58
2022/05/03 12:36:31;;;;;;;3.97;2.97;;;538.40;1664.00;;;;;;5028843;28;20037;-60
2022/05/03 12:39:07;;;;;;;3.60;2.60;;;538.50;1689.60;;;;;;5028395;28;20029;-58
2022/05/03 12:41:34;;;;;;;3.53;2.65;;;538.40;1715.20;;;;;;5028800;28;20044;-60
2022/05/03 12:44:00;;;;;;;4.82;3.22;;;563.30;1715.20;;;;;;5028987;28;20357;-60
2022/05/03 12:46:28;;;;;;;3.90;2.42;;;538.50;1792.00;;;;;;5028680;28;20026;-58
2022/05/03 12:48:54;;;;;;;4.85;3.00;;;538.50;1715.20;;;;;;5028631;28;20100;-60
2022/05/03 12:51:19;;;;;;;5.75;2.63;;;538.50;1740.80;;;;;;5029813;28;20108;-57
2022/05/03 12:53:47;;;;;;;6.13;2.70;;;538.50;1664.00;;;;;;5031042;28;20524;-59
2022/05/03 12:58:58;;;;;;;4.25;2.55;;;538.00;1664.00;;;;;;5030491;28;20376;-57
2022/05/03 13:01:25;;;;;;;4.60;2.75;;;538.20;1689.60;;;;;;5030173;28;20026;-61
2022/05/03 13:03:51;;;;;;;4.60;3.15;;;538.20;1689.60;;;;;;5030065;28;20051;-58
2022/05/03 13:06:19;;;;;;;4.60;2.70;;;538.40;1638.40;;;;;;5030406;28;20384;-58
2022/05/03 13:08:45;;;;;;;4.10;2.92;;;563.20;1715.20;;;;;;5030116;28;20456;-57
2022/05/03 13:11:12;;;;;;;4.25;2.83;;;563.50;1612.80;;;;;;5030181;28;20030;-58
2022/05/03 13:13:38;;;;;;;4.50;2.83;;;563.60;1689.60;;;;;;5030085;28;20026;-59
2022/05/03 13:16:04;;;;;;;3.90;2.85;;;563.60;1689.60;;;;;;5029779;28;20032;-58
2022/05/03 13:18:30;;;;;;;4.85;3.00;;;563.70;1638.40;;;;;;5029654;28;20033;-58
2022/05/03 13:20:56;;;;;;;3.80;2.35;;;563.80;1638.40;;;;;;5030097;28;20404;-57